Time;durP1;ratioP1;P1;durP2;ratioP2;P2;SDS_P1;SDS_P2;PMS_P1;PMS_P2;Temp;Humidity;BMP_temperature;BMP_pressure;BME280_temperature;BME280_humidity;BME280_pressure;Samples;Min_cycle;Max_cycle;Signal;HPM_P1;HPM_P2
2023/04/29 00:01:12;;;;;;;25.10;14.90;;;;;;;7.08;50.52;100088.92;103020;1257;108701;-64
2023/04/29 00:03:45;;;;;;;24.50;15.60;;;;;;;7.05;50.51;100086.91;103151;1257;138306;-63
2023/04/29 00:06:27;;;;;;;21.40;14.50;;;;;;;7.04;50.59;100085.40;103043;1257;112686;-63
2023/04/29 00:09:07;;;;;;;21.40;14.40;;;;;;;7.02;50.59;100086.65;102874;1257;138281;-63
2023/04/29 00:11:39;;;;;;;21.40;14.10;;;;;;;7.01;50.77;100086.50;103076;1260;99758;-63
2023/04/29 00:14:24;;;;;;;20.20;13.80;;;;;;;6.99;50.98;100083.05;102934;1258;138016;-63
2023/04/29 00:17:08;;;;;;;23.50;14.70;;;;;;;6.97;51.02;100084.83;103018;1257;99174;-65
2023/04/29 00:19:52;;;;;;;21.60;15.00;;;;;;;6.95;51.34;100090.05;102838;1260;138320;-63
2023/04/29 00:22:37;;;;;;;20.40;14.60;;;;;;;6.92;51.57;100084.58;103019;1260;109267;-62
2023/04/29 00:25:21;;;;;;;22.00;14.80;;;;;;;6.91;51.48;100082.70;103027;1261;99846;-62
2023/04/29 00:28:05;;;;;;;20.40;14.50;;;;;;;6.90;51.60;100073.91;103011;1257;108525;-62
2023/04/29 00:30:39;;;;;;;21.90;14.70;;;;;;;6.89;51.86;100075.30;102982;1261;99194;-64
2023/04/29 00:33:23;;;;;;;25.10;14.40;;;;;;;6.88;51.45;100070.50;102975;1257;137993;-62
2023/04/29 00:35:47;;;;;;;21.50;14.60;;;;;;;6.90;51.60;100075.45;103007;1257;107766;-63
2023/04/29 00:38:31;;;;;;;20.10;13.90;;;;;;;6.90;51.72;100071.48;102924;1256;138184;-63
2023/04/29 00:41:15;;;;;;;17.00;13.50;;;;;;;6.91;51.52;100070.77;102998;1258;107391;-63
2023/04/29 00:43:48;;;;;;;24.40;13.90;;;;;;;6.91;51.76;100066.80;102929;1259;138314;-63
2023/04/29 00:46:32;;;;;;;22.30;14.30;;;;;;;6.91;51.66;100061.95;102964;1259;114731;-63
2023/04/29 00:49:16;;;;;;;18.90;13.10;;;;;;;6.92;51.65;100066.42;102991;1257;108192;-63
2023/04/29 00:51:41;;;;;;;18.00;13.00;;;;;;;6.94;51.39;100059.31;102866;1257;138123;-63
2023/04/29 00:54:25;;;;;;;24.00;14.20;;;;;;;6.93;51.84;100059.33;103048;1257;108397;-63
2023/04/29 00:57:09;;;;;;;24.00;13.60;;;;;;;6.93;51.67;100059.86;102887;1257;138227;-64
2023/04/29 00:59:53;;;;;;;19.10;12.90;;;;;;;6.91;51.72;100053.15;103068;1257;111971;-64
2023/04/29 01:02:19;;;;;;;21.20;13.00;;;;;;;6.89;51.79;100054.91;102887;1257;138407;-63
2023/04/29 01:05:03;;;;;;;19.50;13.60;;;;;;;6.88;51.94;100057.71;103042;1257;99122;-63
2023/04/29 01:07:58;;;;;;;22.80;13.80;;;;;;;6.86;51.93;100052.74;102995;1258;138415;-64
2023/04/29 01:10:39;;;;;;;20.90;13.40;;;;;;;6.84;51.90;100061.42;103460;1256;99182;-63
2023/04/29 01:13:11;;;;;;;22.00;14.00;;;;;;;6.83;51.88;100049.87;103289;1256;112979;-64
2023/04/29 01:16:01;;;;;;;17.50;12.60;;;;;;;6.81;52.16;100057.65;103065;1257;137918;-63
2023/04/29 01:18:32;;;;;;;22.00;13.10;;;;;;;6.81;52.35;100059.04;103009;1262;99636;-64
2023/04/29 01:21:16;;;;;;;21.30;13.20;;;;;;;6.81;52.14;100060.95;102942;1256;138234;-64
2023/04/29 01:23:55;;;;;;;20.20;12.70;;;;;;;6.80;52.20;100058.36;103091;1260;99068;-64
2023/04/29 01:26:40;;;;;;;18.50;13.10;;;;;;;6.80;52.10;100056.47;103034;1256;137972;-64
2023/04/29 01:29:34;;;;;;;20.70;12.50;;;;;;;6.79;52.27;100053.20;102352;1256;1003172;-63
2023/04/29 01:32:25;;;;;;;20.40;13.80;;;;;;;6.77;52.44;100051.70;102998;1258;138546;-64
2023/04/29 01:34:56;;;;;;;19.00;12.90;;;;;;;6.76;52.41;100049.29;103153;1257;107767;-64
2023/04/29 01:37:48;;;;;;;15.70;12.20;;;;;;;6.76;52.33;100052.94;103021;1260;99124;-64
2023/04/29 01:40:37;;;;;;;19.80;13.30;;;;;;;6.75;52.48;100053.81;103126;1256;115854;-64
2023/04/29 01:43:24;;;;;;;17.80;13.10;;;;;;;6.74;52.42;100061.43;103038;1257;108364;-64
2023/04/29 01:46:09;;;;;;;;;;;;;;;6.73;52.39;100052.83;103061;1258;99217;-64
2023/04/29 01:48:54;;;;;;;17.30;12.80;;;;;;;6.71;52.65;100054.77;102708;1262;108127;-63
2023/04/29 01:51:38;;;;;;;19.00;13.30;;;;;;;6.68;52.61;100054.48;102977;1265;138541;-64
2023/04/29 01:54:22;;;;;;;20.40;13.40;;;;;;;6.66;52.76;100053.98;102779;1262;112252;-64
2023/04/29 01:56:59;;;;;;;22.80;12.90;;;;;;;6.63;53.12;100052.98;102584;1267;138248;-64
2023/04/29 01:59:52;;;;;;;18.50;13.00;;;;;;;6.61;52.69;100048.88;102817;1262;102138;-64
2023/04/29 02:02:36;;;;;;;18.40;13.10;;;;;;;6.60;52.78;100052.02;103033;1265;138291;-63
2023/04/29 02:05:20;;;;;;;18.90;12.60;;;;;;;6.59;52.98;100053.59;102758;1262;99420;-64
2023/04/29 02:07:49;;;;;;;17.70;12.00;;;;;;;6.58;52.95;100054.14;102685;1262;139004;-65
2023/04/29 02:10:33;;;;;;;20.50;12.20;;;;;;;6.58;53.00;100049.65;102726;1262;108517;-64
2023/04/29 02:13:17;;;;;;;19.30;12.00;;;;;;;6.56;53.13;100051.40;102762;1265;99276;-64
2023/04/29 02:15:51;;;;;;;18.10;11.90;;;;;;;6.55;52.94;100045.04;102635;1262;138263;-65
2023/04/29 02:18:24;;;;;;;18.50;12.40;;;;;;;6.54;52.92;100049.03;102676;1264;99243;-64
2023/04/29 02:21:08;;;;;;;18.80;12.50;;;;;;;6.54;52.98;100043.86;102951;1257;137991;-64
2023/04/29 02:23:53;;;;;;;14.60;11.30;;;;;;;6.52;53.08;100044.23;103677;1256;107570;-64
2023/04/29 02:26:37;;;;;;;17.50;12.20;;;;;;;6.51;53.09;100033.04;103114;1256;138254;-64
2023/04/29 02:29:21;;;;;;;17.60;12.00;;;;;;;6.50;53.31;100039.62;103099;1259;108484;-63
2023/04/29 02:31:58;;;;;;;17.20;11.20;;;;;;;6.50;53.17;100032.71;102934;1256;139254;-65
2023/04/29 02:34:24;;;;;;;19.40;11.60;;;;;;;6.50;53.19;100032.89;103115;1256;113517;-64
2023/04/29 02:36:51;;;;;;;15.60;11.30;;;;;;;6.49;53.24;100027.71;103117;1256;107677;-64
2023/04/29 02:39:19;;;;;;;18.40;11.30;;;;;;;6.49;53.37;100025.83;102989;1256;138301;-64
2023/04/29 02:42:03;;;;;;;19.80;11.50;;;;;;;6.48;53.59;100031.55;103028;1256;107859;-64
2023/04/29 02:44:47;;;;;;;19.00;11.60;;;;;;;6.46;53.48;100030.52;102982;1256;138172;-64
2023/04/29 02:47:14;;;;;;;17.60;11.50;;;;;;;6.44;53.43;100030.04;103199;1256;112209;-64
2023/04/29 02:49:49;;;;;;;16.80;11.20;;;;;;;6.43;53.72;100031.09;103003;1257;138346;-65
2023/04/29 02:52:27;;;;;;;15.90;11.50;;;;;;;6.42;53.66;100026.97;103608;1256;99173;-63
2023/04/29 02:55:11;;;;;;;17.30;11.30;;;;;;;6.41;53.78;100020.42;103109;1256;109126;-62
2023/04/29 02:57:45;;;;;;;15.60;10.50;;;;;;;6.40;53.69;100023.91;103044;1256;138210;-64
2023/04/29 03:00:19;;;;;;;16.40;11.00;;;;;;;6.39;53.68;100020.64;102873;1256;112773;-63
2023/04/29 03:02:56;;;;;;;15.70;10.30;;;;;;;6.38;53.76;100024.80;103125;1260;138384;-64
2023/04/29 03:05:29;;;;;;;16.30;10.80;;;;;;;6.38;53.81;100025.16;103141;1256;99110;-63
2023/04/29 03:08:13;;;;;;;18.10;10.40;;;;;;;6.39;53.70;100017.55;102976;1256;138167;-64
2023/04/29 03:10:57;;;;;;;14.30;10.30;;;;;;;6.39;53.79;100021.69;103095;1257;99231;-63
2023/04/29 03:13:41;;;;;;;14.80;10.30;;;;;;;6.39;53.71;100022.73;103163;1256;113545;-63
2023/04/29 03:16:13;;;;;;;14.60;10.50;;;;;;;6.39;53.96;100025.66;102981;1258;107138;-63
2023/04/29 03:18:57;;;;;;;20.60;10.40;;;;;;;6.38;53.83;100018.42;103333;1257;100799;-63
2023/04/29 03:21:25;;;;;;;17.00;11.00;;;;;;;6.38;53.87;100025.66;103236;1256;138287;-62
2023/04/29 03:24:08;;;;;;;17.40;10.20;;;;;;;6.38;53.85;100027.41;103199;1256;99149;-63
2023/04/29 03:26:53;;;;;;;19.70;10.30;;;;;;;6.39;53.72;100019.63;103021;1260;138016;-63
2023/04/29 03:29:17;;;;;;;16.30;10.10;;;;;;;6.39;53.78;100016.67;103415;1259;107473;-63
2023/04/29 03:32:01;;;;;;;14.20;9.70;;;;;;;6.40;53.97;100019.41;103028;1256;138797;-63
2023/04/29 03:34:44;;;;;;;14.50;9.60;;;;;;;6.41;53.82;100015.95;103582;1256;1002171;-64
2023/04/29 03:37:31;;;;;;;16.80;10.20;;;;;;;6.42;53.61;100011.79;104346;1256;97464;-63
2023/04/29 03:40:15;;;;;;;16.10;10.40;;;;;;;6.43;53.76;100014.69;104247;1257;114730;-64
2023/04/29 03:42:59;;;;;;;14.90;10.40;;;;;;;6.44;53.84;100010.70;104290;1257;108836;-64
2023/04/29 03:45:43;;;;;;;17.30;10.60;;;;;;;6.46;53.87;100022.23;103463;1257;1002960;-64
2023/04/29 03:48:11;;;;;;;14.30;10.60;;;;;;;6.48;53.73;100022.55;104249;1258;107410;-64
2023/04/29 03:50:36;;;;;;;16.00;10.90;;;;;;;6.50;53.66;100018.55;103146;1263;138237;-64
2023/04/29 03:53:03;;;;;;;15.90;10.90;;;;;;;6.53;53.68;100023.67;102882;1259;113262;-64
2023/04/29 03:55:47;;;;;;;15.90;10.60;;;;;;;6.55;53.71;100019.98;102931;1259;108802;-64
2023/04/29 03:58:31;;;;;;;16.30;10.20;;;;;;;6.57;53.65;100020.46;103531;1259;99665;-63
2023/04/29 04:01:16;;;;;;;17.30;10.70;;;;;;;6.58;53.63;100020.27;103109;1259;107935;-64
2023/04/29 04:03:42;;;;;;;18.20;10.30;;;;;;;6.61;53.48;100020.73;103049;1257;139269;-63
2023/04/29 04:06:15;;;;;;;15.60;10.40;;;;;;;6.63;53.55;100017.58;102944;1257;112795;-63
2023/04/29 04:08:59;;;;;;;14.70;10.30;;;;;;;6.67;53.53;100014.95;102949;1256;138988;-63
2023/04/29 04:11:43;;;;;;;15.60;10.50;;;;;;;6.69;53.43;100016.44;103155;1256;99601;-63
2023/04/29 04:14:28;;;;;;;15.10;9.80;;;;;;;6.72;53.33;100015.19;103049;1260;138166;-63
2023/04/29 04:17:12;;;;;;;14.60;10.10;;;;;;;6.75;53.26;100013.02;103530;1256;99238;-63
2023/04/29 04:19:56;;;;;;;15.00;9.70;;;;;;;6.78;53.37;100010.03;103173;1256;113464;-63
2023/04/29 04:22:40;;;;;;;14.60;9.80;;;;;;;6.83;53.19;100009.77;103200;1256;106800;-63
2023/04/29 04:25:24;;;;;;;17.60;9.70;;;;;;;6.89;53.18;100007.05;103104;1256;100926;-64
2023/04/29 04:27:56;;;;;;;17.70;9.60;;;;;;;6.92;53.18;100010.94;102737;1261;138441;-62
2023/04/29 04:30:40;;;;;;;13.40;9.40;;;;;;;6.99;53.09;100005.97;102975;1256;99188;-62
2023/04/29 04:33:24;;;;;;;18.40;9.80;;;;;;;7.06;52.86;100008.08;102995;1256;138071;-63
2023/04/29 04:35:57;;;;;;;14.10;9.60;;;;;;;7.15;52.66;100005.96;102976;1260;108456;-63
2023/04/29 04:38:34;;;;;;;18.10;9.60;;;;;;;7.25;52.40;100004.54;103006;1256;138184;-63
2023/04/29 04:41:18;;;;;;;18.00;8.90;;;;;;;7.39;52.30;100005.78;103114;1256;108099;-63
2023/04/29 04:43:53;;;;;;;15.40;8.80;;;;;;;7.54;51.87;100003.52;103103;1256;99174;-64
2023/04/29 04:46:41;;;;;;;15.70;9.20;;;;;;;7.74;51.48;99999.56;103022;1256;112912;-63
2023/04/29 04:49:25;;;;;;;10.50;8.60;;;;;;;8.17;51.17;99998.14;103571;1256;107802;-64
2023/04/29 04:52:08;;;;;;;13.30;8.50;;;;;;;8.92;50.08;99986.34;103047;1256;137881;-63
2023/04/29 04:54:52;;;;;;;11.50;8.30;;;;;;;9.66;48.55;99988.75;102400;1256;1002925;-63
2023/04/29 04:57:36;;;;;;;13.00;8.20;;;;;;;10.15;47.25;99986.60;102991;1256;139933;-63
2023/04/29 05:00:20;;;;;;;12.30;7.90;;;;;;;10.33;46.40;99984.07;103260;1260;112630;-64
2023/04/29 05:02:58;;;;;;;12.10;8.20;;;;;;;10.40;45.90;99986.95;102957;1255;138322;-64
2023/04/29 05:05:42;;;;;;;11.20;7.60;;;;;;;10.39;45.50;99988.38;104474;1256;97556;-65
2023/04/29 05:08:06;;;;;;;14.20;8.20;;;;;;;10.29;45.19;99990.64;103329;1259;107538;-64
2023/04/29 05:10:37;;;;;;;12.00;8.10;;;;;;;10.24;45.47;99993.08;103056;1256;99211;-64
2023/04/29 05:13:21;;;;;;;15.00;8.70;;;;;;;10.21;45.50;99984.13;103041;1260;114374;-64
2023/04/29 05:16:06;;;;;;;10.70;8.00;;;;;;;10.13;45.37;99995.67;103187;1256;138216;-65
2023/04/29 05:18:40;;;;;;;14.80;7.70;;;;;;;10.03;45.53;99989.07;103017;1256;99242;-65
2023/04/29 05:21:04;;;;;;;12.30;8.00;;;;;;;10.00;45.72;99991.42;98849;1261;5367113;-65
2023/04/29 05:23:37;;;;;;;14.10;7.60;;;;;;;9.98;45.72;99986.80;103087;1256;99664;-62
2023/04/29 05:26:21;;;;;;;14.80;8.00;;;;;;;10.13;45.42;99997.43;103200;1256;138314;-64
2023/04/29 05:29:05;;;;;;;11.50;7.20;;;;;;;10.42;45.01;99985.32;103032;1256;99238;-66
2023/04/29 05:31:50;;;;;;;14.20;7.20;;;;;;;11.17;44.60;99978.68;103156;1260;111980;-64
2023/04/29 05:34:15;;;;;;;13.10;7.40;;;;;;;12.39;43.22;99986.70;102835;1261;138253;-64
2023/04/29 05:36:41;;;;;;;11.00;6.80;;;;;;;13.59;40.80;99974.90;102974;1256;99193;-64
2023/04/29 05:39:05;;;;;;;11.00;6.80;;;;;;;14.57;39.28;99973.80;103034;1256;138172;-66
2023/04/29 05:41:29;;;;;;;8.60;6.00;;;;;;;15.58;37.58;99972.20;103044;1256;99126;-65
2023/04/29 05:44:06;;;;;;;9.20;6.10;;;;;;;16.66;36.51;99965.64;103029;1256;113566;-65
2023/04/29 05:46:29;;;;;;;13.20;6.20;;;;;;;17.58;34.75;99962.98;102931;1256;137918;-65
2023/04/29 05:48:53;;;;;;;9.90;6.00;;;;;;;18.24;33.14;99960.83;103455;1258;99297;-65
2023/04/29 05:51:17;;;;;;;8.40;5.70;;;;;;;18.86;32.38;99956.35;103138;1263;138115;-65
2023/04/29 05:53:41;;;;;;;7.90;6.00;;;;;;;19.52;31.46;99956.20;103223;1256;99042;-65
2023/04/29 05:56:07;;;;;;;9.00;5.70;;;;;;;19.97;30.65;99959.88;103006;1256;113279;-65
2023/04/29 05:58:30;;;;;;;10.80;5.70;;;;;;;20.22;29.23;99966.23;103395;1261;138458;-64
2023/04/29 06:00:54;;;;;;;11.80;5.60;;;;;;;20.47;28.77;99948.66;103203;1261;99473;-64
2023/04/29 06:03:18;;;;;;;11.90;5.30;;;;;;;20.64;28.52;99950.70;102790;1263;138146;-65
2023/04/29 06:05:42;;;;;;;9.40;5.60;;;;;;;20.89;28.07;99958.95;103181;1261;99255;-65
2023/04/29 06:08:12;;;;;;;11.00;5.40;;;;;;;21.29;28.20;99954.34;104175;1256;113029;-65
2023/04/29 06:10:41;;;;;;;9.80;5.40;;;;;;;21.84;27.76;99948.02;103115;1256;109012;-65
2023/04/29 06:13:05;;;;;;;9.90;5.10;;;;;;;22.44;27.41;99947.01;103137;1260;99464;-65
2023/04/29 06:15:29;;;;;;;10.10;5.20;;;;;;;22.89;26.99;99942.31;102912;1259;137948;-65
2023/04/29 06:17:53;;;;;;;6.20;5.10;;;;;;;23.18;26.40;99943.30;102917;1256;99190;-65
2023/04/29 06:20:16;;;;;;;7.80;5.10;;;;;;;23.40;25.53;99952.98;104244;1256;137852;-66
2023/04/29 06:22:41;;;;;;;10.00;5.20;;;;;;;23.54;25.27;99943.13;103154;1256;107043;-66
2023/04/29 06:25:07;;;;;;;8.90;4.80;;;;;;;23.72;24.92;99946.60;103125;1260;99015;-66
2023/04/29 06:27:41;;;;;;;11.70;5.00;;;;;;;23.75;23.89;99951.45;103103;1263;137864;-63
2023/04/29 06:30:08;;;;;;;7.70;4.80;;;;;;;23.63;24.08;99948.64;103073;1256;99140;-65
2023/04/29 06:32:31;;;;;;;11.70;4.80;;;;;;;23.72;24.19;99952.27;103292;1256;138482;-66
2023/04/29 06:34:55;;;;;;;7.70;4.70;;;;;;;23.80;23.47;99959.85;103133;1256;108108;-69
2023/04/29 06:37:28;;;;;;;8.60;4.80;;;;;;;23.86;23.66;99953.27;102700;1256;99203;-65
2023/04/29 06:40:27;;;;;;;9.10;4.70;;;;;;;24.39;23.99;99942.98;102341;1264;137948;-67
2023/04/29 06:43:10;;;;;;;8.40;4.40;;;;;;;24.85;22.57;99948.55;102599;1257;100754;-67
2023/04/29 06:46:00;;;;;;;8.20;4.70;;;;;;;24.97;22.79;99932.24;102808;1262;138907;-67
2023/04/29 06:48:30;;;;;;;9.10;4.50;;;;;;;25.35;22.76;99929.41;102901;1256;106809;-68
2023/04/29 06:50:55;;;;;;;8.90;4.60;;;;;;;25.60;22.09;99939.02;102780;1260;138219;-66
2023/04/29 06:53:20;;;;;;;11.70;4.40;;;;;;;25.53;21.69;99936.77;102816;1259;107974;-67
2023/04/29 06:55:45;;;;;;;8.00;4.20;;;;;;;25.52;22.08;99935.91;102826;1261;99171;-66
2023/04/29 06:58:08;;;;;;;7.30;4.40;;;;;;;25.08;21.93;99930.81;102711;1264;139160;-67
2023/04/29 07:00:32;;;;;;;8.00;4.20;;;;;;;24.47;22.33;99925.34;102765;1256;107267;-69
2023/04/29 07:02:56;;;;;;;7.80;4.10;;;;;;;23.94;22.81;99935.14;102742;1263;138038;-67
2023/04/29 07:05:19;;;;;;;8.00;4.40;;;;;;;23.25;22.80;99945.21;102988;1256;108199;-67
2023/04/29 07:07:43;;;;;;;7.50;4.50;;;;;;;22.64;23.26;99937.81;102870;1256;99203;-66
2023/04/29 07:10:08;;;;;;;7.60;4.40;;;;;;;22.54;23.84;99936.15;102674;1256;137829;-66
2023/04/29 07:12:31;;;;;;;9.50;4.10;;;;;;;22.62;23.79;99934.58;102879;1256;107932;-67
2023/04/29 07:14:54;;;;;;;7.70;4.50;;;;;;;22.73;23.75;99928.64;102836;1261;140195;-66
2023/04/29 07:17:18;;;;;;;7.20;4.30;;;;;;;22.54;23.82;99930.91;102967;1256;108329;-67
2023/04/29 07:19:43;;;;;;;4.80;3.50;;;;;;;22.34;24.12;99924.14;103040;1256;99209;-66
2023/04/29 07:22:07;;;;;;;6.50;4.00;;;;;;;22.44;24.30;99923.98;102785;1256;137906;-66
2023/04/29 07:24:31;;;;;;;8.10;3.80;;;;;;;22.73;24.13;99928.66;102791;1259;106951;-66
2023/04/29 07:26:54;;;;;;;7.90;4.00;;;;;;;23.05;24.03;99924.25;102616;1263;138432;-67
2023/04/29 07:29:18;;;;;;;6.20;3.90;;;;;;;23.34;23.56;99924.45;103043;1256;108483;-65
2023/04/29 07:31:41;;;;;;;10.20;4.30;;;;;;;23.55;23.39;99931.61;102965;1261;99248;-66
2023/04/29 07:34:05;;;;;;;6.60;3.50;;;;;;;24.01;23.50;99924.39;102809;1256;138053;-65
2023/04/29 07:36:28;;;;;;;8.50;3.90;;;;;;;24.56;23.17;99922.77;103038;1256;110455;-65
2023/04/29 07:38:52;;;;;;;9.60;4.20;;;;;;;24.79;22.19;99926.71;102788;1261;138369;-64
2023/04/29 07:41:16;;;;;;;8.50;3.90;;;;;;;25.08;22.36;99915.34;104443;1256;107654;-65
2023/04/29 07:43:40;;;;;;;7.60;3.90;;;;;;;25.62;22.25;99913.41;104302;1261;97419;-66
2023/04/29 07:46:05;;;;;;;9.20;3.70;;;;;;;26.06;22.08;99914.98;104208;1256;138471;-66
2023/04/29 07:48:29;;;;;;;10.40;3.80;;;;;;;26.24;20.88;99919.42;104351;1256;107561;-66
2023/04/29 07:50:53;;;;;;;10.00;3.70;;;;;;;26.26;21.25;99906.95;104178;1256;138425;-66
2023/04/29 07:53:17;;;;;;;10.20;3.90;;;;;;;26.03;20.95;99914.39;103631;1256;108685;-66
2023/04/29 07:55:40;;;;;;;10.40;3.40;;;;;;;25.57;21.29;99913.23;102964;1261;99158;-67
2023/04/29 07:58:05;;;;;;;9.60;3.60;;;;;;;25.24;21.69;99914.91;103092;1256;138075;-65
2023/04/29 08:00:28;;;;;;;5.30;3.60;;;;;;;25.18;21.58;99917.27;102948;1261;107930;-66
2023/04/29 08:02:52;;;;;;;12.20;3.90;;;;;;;25.06;21.14;99915.06;103528;1256;138402;-66
2023/04/29 08:05:17;;;;;;;8.10;3.30;;;;;;;25.16;21.68;99919.90;103388;1260;108430;-65
2023/04/29 08:07:42;;;;;;;7.70;3.20;;;;;;;25.44;21.39;99914.88;102994;1256;99251;-64
2023/04/29 08:10:08;;;;;;;6.90;3.90;;;;;;;25.53;20.82;99925.48;103046;1256;138455;-65
2023/04/29 08:12:33;;;;;;;8.40;3.20;;;;;;;25.49;20.94;99923.11;103295;1256;107705;-67
2023/04/29 08:14:57;;;;;;;8.20;3.20;;;;;;;25.66;20.98;99918.18;102793;1256;138033;-66
2023/04/29 08:17:20;;;;;;;7.00;3.20;;;;;;;25.70;20.69;99923.11;102960;1256;108286;-67
2023/04/29 08:19:44;;;;;;;7.40;3.30;;;;;;;25.47;20.33;99921.54;102940;1260;99236;-66
2023/04/29 08:22:10;;;;;;;8.20;3.40;;;;;;;25.29;20.58;99923.50;102953;1256;137848;-66
2023/04/29 08:24:34;;;;;;;5.50;3.30;;;;;;;25.19;20.75;99921.61;103063;1256;108469;-65
2023/04/29 08:26:58;;;;;;;7.40;3.00;;;;;;;24.90;20.51;99920.30;103149;1256;138087;-65
2023/04/29 08:29:21;;;;;;;14.50;3.30;;;;;;;24.72;20.83;99921.55;103125;1260;110582;-65
2023/04/29 08:31:45;;;;;;;7.50;3.40;;;;;;;24.61;21.13;99917.69;103237;1260;99257;-66
2023/04/29 08:34:09;;;;;;;14.70;3.20;;;;;;;24.64;21.48;99920.50;104153;1260;140356;-64
2023/04/29 08:36:33;;;;;;;11.90;3.60;;;;;;;24.65;21.37;99928.98;103060;1258;107810;-65
2023/04/29 08:38:56;;;;;;;9.10;3.40;;;;;;;24.51;21.19;99936.18;103697;1256;138188;-65
2023/04/29 08:41:20;;;;;;;10.00;3.30;;;;;;;24.26;21.27;99938.23;103141;1256;107488;-66
2023/04/29 08:43:44;;;;;;;8.10;3.80;;;;;;;24.01;21.41;99934.68;103009;1256;99145;-67
2023/04/29 08:46:09;;;;;;;6.20;3.30;;;;;;;23.88;21.82;99930.20;102980;1256;137851;-64
2023/04/29 08:48:33;;;;;;;9.00;3.80;;;;;;;23.75;22.00;99927.81;102888;1259;107309;-65
2023/04/29 08:50:58;;;;;;;6.40;3.30;;;;;;;23.60;22.20;99915.57;103137;1256;138031;-66
2023/04/29 08:53:21;;;;;;;9.00;3.60;;;;;;;23.50;22.49;99923.92;103119;1260;107764;-66
2023/04/29 08:55:46;;;;;;;6.60;3.50;;;;;;;23.44;22.57;99909.91;103109;1260;99063;-65
2023/04/29 08:58:11;;;;;;;7.80;3.50;;;;;;;23.34;22.80;99899.65;102997;1256;138341;-66
2023/04/29 09:00:36;;;;;;;8.40;4.20;;;;;;;23.47;22.96;99907.30;103144;1256;108471;-67
2023/04/29 09:03:04;;;;;;;7.70;3.90;;;;;;;23.62;23.09;99899.29;102901;1261;137977;-66
2023/04/29 09:05:29;;;;;;;5.70;3.10;;;;;;;23.73;22.68;99901.39;103141;1256;107850;-65
2023/04/29 09:07:52;;;;;;;10.70;3.50;;;;;;;23.37;22.77;99902.23;103296;1256;99133;-65
2023/04/29 09:10:17;;;;;;;7.00;3.70;;;;;;;22.81;22.98;99905.95;102972;1259;138241;-65
2023/04/29 09:12:40;;;;;;;8.20;3.60;;;;;;;22.30;23.66;99899.61;103010;1256;107766;-66
2023/04/29 09:15:05;;;;;;;9.70;3.80;;;;;;;21.84;24.15;99905.55;102912;1260;138091;-66
2023/04/29 09:17:43;;;;;;;8.10;3.60;;;;;;;21.46;24.49;99912.41;103111;1256;107164;-65
2023/04/29 09:20:26;;;;;;;7.30;3.70;;;;;;;21.20;25.09;99907.45;103112;1256;99061;-65
2023/04/29 09:22:51;;;;;;;9.40;4.00;;;;;;;21.18;25.33;99904.41;103730;1256;113338;-65
2023/04/29 09:25:15;;;;;;;10.20;3.70;;;;;;;21.27;25.16;99919.45;102995;1260;108293;-65
2023/04/29 09:27:38;;;;;;;7.50;3.60;;;;;;;21.16;24.98;99922.60;102925;1260;138768;-66
2023/04/29 09:30:02;;;;;;;9.20;3.60;;;;;;;20.82;25.58;99913.21;103088;1256;109798;-65
2023/04/29 09:32:26;;;;;;;7.80;3.70;;;;;;;20.40;25.78;99927.08;104294;1256;139147;-66
2023/04/29 09:34:50;;;;;;;7.90;3.70;;;;;;;20.12;26.33;99912.11;103792;1260;112085;-65
2023/04/29 09:37:26;;;;;;;12.00;3.70;;;;;;;20.00;26.71;99921.86;103114;1260;107694;-65
2023/04/29 09:39:49;;;;;;;12.40;4.00;;;;;;;19.81;26.76;99927.36;103247;1256;138826;-65
2023/04/29 09:42:13;;;;;;;6.40;3.20;;;;;;;19.88;26.93;99922.08;103149;1256;108460;-65
2023/04/29 09:44:41;;;;;;;20.40;3.80;;;;;;;20.06;26.89;99902.73;102995;1261;138214;-65
2023/04/29 09:47:06;;;;;;;11.00;3.70;;;;;;;20.26;26.99;99895.16;103124;1256;113448;-65
2023/04/29 09:49:32;;;;;;;6.30;4.00;;;;;;;20.53;26.65;99902.92;103142;1256;107770;-66
2023/04/29 09:51:57;;;;;;;9.50;3.70;;;;;;;20.61;26.57;99892.27;103100;1256;138097;-65
2023/04/29 09:54:22;;;;;;;11.00;3.60;;;;;;;20.69;26.49;99890.60;103147;1256;108293;-65
2023/04/29 09:56:50;;;;;;;8.00;3.60;;;;;;;20.88;26.54;99887.77;103044;1261;138365;-66
2023/04/29 09:59:14;;;;;;;11.50;3.90;;;;;;;21.05;26.26;99891.85;103120;1256;113144;-66
2023/04/29 10:01:37;;;;;;;10.90;4.30;;;;;;;21.32;26.10;99887.80;103165;1256;107352;-65
2023/04/29 10:04:02;;;;;;;10.20;4.00;;;;;;;21.53;25.62;99876.65;103041;1256;138719;-66
2023/04/29 10:06:27;;;;;;;7.10;3.70;;;;;;;21.52;25.34;99873.37;103119;1260;108290;-66
2023/04/29 10:08:51;;;;;;;6.50;3.70;;;;;;;21.52;25.50;99877.20;103029;1256;138191;-66
2023/04/29 10:11:16;;;;;;;9.60;3.90;;;;;;;21.65;25.54;99865.38;103123;1260;113446;-66
2023/04/29 10:13:43;;;;;;;9.90;3.40;;;;;;;21.68;25.31;99877.29;103133;1260;108521;-66
2023/04/29 10:16:14;;;;;;;13.50;4.10;;;;;;;21.60;25.32;99867.88;103078;1256;138211;-66
2023/04/29 10:18:44;;;;;;;11.30;3.90;;;;;;;21.44;25.44;99860.77;103392;1260;107352;-66
2023/04/29 10:21:08;;;;;;;6.80;3.40;;;;;;;21.43;25.87;99862.95;103680;1257;138294;-65
2023/04/29 10:23:33;;;;;;;7.50;3.60;;;;;;;21.45;26.09;99856.29;103225;1260;112608;-66
2023/04/29 10:26:00;;;;;;;8.50;4.00;;;;;;;21.53;26.04;99855.23;103125;1256;110527;-66
2023/04/29 10:28:25;;;;;;;5.00;3.10;;;;;;;21.54;26.15;99851.60;103044;1260;137981;-66
2023/04/29 10:30:51;;;;;;;9.00;3.60;;;;;;;21.61;26.06;99854.02;103091;1256;109031;-66
2023/04/29 10:33:16;;;;;;;5.00;3.70;;;;;;;21.56;26.02;99859.05;103078;1260;138011;-66
2023/04/29 10:35:43;;;;;;;10.40;3.60;;;;;;;21.30;26.09;99852.50;103173;1258;113457;-66
2023/04/29 10:38:14;;;;;;;8.10;3.30;;;;;;;21.27;26.48;99845.39;103183;1260;107471;-66
2023/04/29 10:40:45;;;;;;;7.30;3.20;;;;;;;21.39;26.65;99853.21;103003;1259;99586;-66
2023/04/29 10:43:09;;;;;;;6.60;2.90;;;;;;;21.18;26.44;99848.02;103377;1259;107719;-65
2023/04/29 10:45:34;;;;;;;4.90;3.40;;;;;;;20.85;26.57;99846.84;102941;1261;138089;-65
2023/04/29 10:48:13;;;;;;;9.00;3.80;;;;;;;20.54;26.82;99859.04;103781;1259;113130;-65
2023/04/29 10:51:00;;;;;;;8.50;3.50;;;;;;;20.15;27.07;99854.37;103007;1256;138828;-65
2023/04/29 10:53:24;;;;;;;6.80;3.80;;;;;;;19.92;27.58;99847.71;103684;1258;99310;-65
2023/04/29 10:55:52;;;;;;;18.70;3.60;;;;;;;19.74;27.96;99851.55;103092;1256;107921;-65
2023/04/29 10:58:41;;;;;;;12.30;4.10;;;;;;;19.53;28.53;99862.81;103335;1260;138275;-65
2023/04/29 11:01:07;;;;;;;8.70;3.90;;;;;;;19.27;29.00;99866.49;103174;1260;112768;-65
2023/04/29 11:03:53;;;;;;;7.30;3.70;;;;;;;19.12;29.14;99854.91;103067;1256;138152;-65
2023/04/29 11:06:17;;;;;;;8.60;3.80;;;;;;;19.11;29.41;99839.52;103118;1256;99424;-65
2023/04/29 11:08:42;;;;;;;8.90;3.70;;;;;;;19.19;29.53;99851.60;103095;1256;138115;-65
2023/04/29 11:11:16;;;;;;;10.50;3.60;;;;;;;19.23;29.36;99839.71;103305;1260;99992;-65
2023/04/29 11:13:40;;;;;;;11.10;3.70;;;;;;;19.28;29.53;99837.52;103241;1260;112595;-65
2023/04/29 11:16:05;;;;;;;9.50;3.60;;;;;;;19.28;29.52;99843.16;103501;1260;138914;-65
2023/04/29 11:18:33;;;;;;;7.60;3.90;;;;;;;19.20;29.52;99836.77;103375;1256;99109;-63
2023/04/29 11:21:13;;;;;;;8.00;3.60;;;;;;;19.20;29.66;99832.33;103049;1260;137951;-65
2023/04/29 11:23:40;;;;;;;5.70;3.40;;;;;;;19.22;29.66;99842.23;103062;1260;99302;-65
2023/04/29 11:26:04;;;;;;;7.50;3.90;;;;;;;19.15;29.81;99837.98;103136;1260;115251;-65
2023/04/29 11:28:29;;;;;;;10.10;3.80;;;;;;;19.07;30.17;99838.98;103007;1260;138166;-65
2023/04/29 11:30:53;;;;;;;17.50;4.00;;;;;;;18.97;30.24;99847.27;103125;1257;99492;-65
2023/04/29 11:33:20;;;;;;;7.30;3.70;;;;;;;18.91;30.35;99833.09;103259;1256;138392;-65
2023/04/29 11:35:44;;;;;;;9.20;4.30;;;;;;;18.93;30.54;99827.41;103153;1262;99236;-66